createdAt,value
2022-11-04T00:01:40.516Z,1.63
2022-11-04T00:04:09.325Z,1.17
2022-11-04T00:06:37.950Z,1.60
2022-11-04T00:09:09.017Z,1.10
2022-11-04T00:11:54.687Z,0.90
2022-11-04T00:14:23.309Z,1.17
2022-11-04T00:17:08.990Z,1.07
2022-11-04T00:19:50.812Z,1.00
2022-11-04T00:22:36.140Z,1.10
2022-11-04T00:25:24.446Z,1.20
2022-11-04T00:28:10.348Z,1.27
2022-11-04T00:30:38.627Z,1.50
2022-11-04T00:33:23.849Z,0.77
2022-11-04T00:35:52.131Z,0.93
2022-11-04T00:38:20.147Z,1.30
2022-11-04T00:40:49.531Z,0.90
2022-11-04T00:43:17.794Z,0.97
2022-11-04T00:45:46.025Z,1.70
2022-11-04T00:48:13.964Z,1.83
2022-11-04T00:50:42.930Z,1.40
2022-11-04T00:53:11.424Z,1.20
2022-11-04T00:55:39.552Z,1.20
2022-11-04T00:58:09.000Z,1.37
2022-11-04T01:00:37.001Z,1.60
2022-11-04T01:03:05.118Z,1.00
2022-11-04T01:05:33.309Z,1.13
2022-11-04T01:08:01.281Z,1.50
2022-11-04T01:10:29.280Z,1.07
2022-11-04T01:12:57.243Z,1.87
2022-11-04T01:15:27.091Z,1.30
2022-11-04T01:17:55.054Z,1.63
2022-11-04T01:20:22.997Z,1.10
2022-11-04T01:22:50.969Z,1.17
2022-11-04T01:25:18.931Z,0.90
2022-11-04T01:27:46.886Z,0.90
2022-11-04T01:30:15.271Z,0.83
2022-11-04T01:32:44.628Z,1.07
2022-11-04T01:35:12.921Z,1.03
2022-11-04T01:37:40.888Z,0.80
2022-11-04T01:40:10.171Z,0.90
2022-11-04T01:42:38.145Z,1.10
2022-11-04T01:45:11.053Z,1.57
2022-11-04T01:47:42.759Z,1.33
2022-11-04T01:50:15.129Z,1.10
2022-11-04T01:52:46.711Z,1.13
2022-11-04T01:55:19.067Z,0.77
2022-11-04T01:57:50.128Z,1.70
2022-11-04T02:00:18.989Z,1.00
2022-11-04T02:03:00.325Z,0.77
2022-11-04T02:05:31.461Z,1.07
2022-11-04T02:08:01.210Z,1.00
2022-11-04T02:10:31.920Z,1.37
2022-11-04T02:13:01.283Z,1.87
2022-11-04T02:15:38.408Z,0.73
2022-11-04T02:18:16.691Z,0.90
2022-11-04T02:21:05.524Z,0.60
2022-11-04T02:23:59.373Z,0.80
2022-11-04T02:26:58.230Z,1.40
2022-11-04T02:29:47.776Z,0.70
2022-11-04T02:32:25.593Z,0.73
2022-11-04T02:35:01.171Z,1.00
2022-11-04T02:37:36.894Z,1.20
2022-11-04T02:40:17.666Z,1.40
2022-11-04T02:42:54.643Z,0.70
2022-11-04T02:45:30.648Z,0.97
2022-11-04T02:48:04.075Z,1.00
2022-11-04T02:50:38.473Z,1.20
2022-11-04T02:53:13.344Z,0.93
2022-11-04T02:55:45.776Z,1.23
2022-11-04T02:58:19.476Z,1.03
2022-11-04T03:00:50.910Z,1.00
2022-11-04T03:03:22.283Z,1.27
2022-11-04T03:05:53.777Z,0.70
2022-11-04T03:08:26.894Z,0.97
2022-11-04T03:10:58.539Z,0.80
2022-11-04T03:13:30.861Z,0.87
2022-11-04T03:16:03.983Z,0.80
2022-11-04T03:18:35.479Z,1.07
2022-11-04T03:21:07.195Z,0.80
2022-11-04T03:23:36.295Z,0.60
2022-11-04T03:26:10.924Z,0.87
2022-11-04T03:28:43.430Z,0.80
2022-11-04T03:31:15.631Z,1.03
2022-11-04T03:33:46.252Z,1.47
2022-11-04T03:36:14.604Z,1.00
2022-11-04T03:38:42.880Z,0.83
2022-11-04T03:41:14.234Z,1.40
2022-11-04T03:43:43.203Z,1.40
2022-11-04T03:46:14.082Z,0.73
2022-11-04T03:48:45.018Z,0.80
2022-11-04T03:51:12.959Z,0.77
2022-11-04T03:53:42.522Z,0.90
2022-11-04T03:56:25.134Z,1.20
2022-11-04T03:59:04.665Z,0.90
2022-11-04T04:01:43.515Z,1.03
2022-11-04T04:04:17.321Z,1.30
2022-11-04T04:06:46.420Z,1.17
2022-11-04T04:09:18.677Z,1.53
2022-11-04T04:11:51.010Z,1.33
2022-11-04T04:14:37.928Z,1.00
2022-11-04T04:17:11.699Z,1.00
2022-11-04T04:19:41.820Z,1.00
2022-11-04T04:22:13.028Z,1.00
2022-11-04T04:25:02.748Z,0.80
2022-11-04T04:27:32.451Z,0.60
2022-11-04T04:30:02.601Z,0.80
2022-11-04T04:32:35.536Z,0.77
2022-11-04T04:35:21.720Z,1.13
2022-11-04T04:37:50.228Z,1.10
2022-11-04T04:40:39.790Z,1.10
2022-11-04T04:43:27.784Z,0.80
2022-11-04T04:45:57.983Z,2.30
2022-11-04T04:48:27.317Z,1.10
2022-11-04T04:51:02.036Z,1.10
2022-11-04T04:53:30.257Z,1.10
2022-11-04T04:55:58.211Z,1.00
2022-11-04T04:58:26.177Z,1.03
2022-11-04T05:00:54.207Z,0.80
2022-11-04T05:03:22.571Z,0.80
2022-11-04T05:05:53.749Z,1.60
2022-11-04T05:08:24.259Z,1.03
2022-11-04T05:10:52.180Z,1.03
2022-11-04T05:13:30.126Z,0.97
2022-11-04T05:15:59.000Z,1.00
2022-11-04T05:18:26.940Z,0.90
2022-11-04T05:20:56.241Z,1.30
2022-11-04T05:23:24.549Z,0.90
2022-11-04T05:25:52.497Z,1.00
2022-11-04T05:28:20.430Z,0.90
2022-11-04T05:30:48.370Z,1.10
2022-11-04T05:33:16.640Z,1.13
2022-11-04T05:35:44.569Z,1.00
2022-11-04T05:38:13.924Z,0.93
2022-11-04T05:40:41.858Z,1.50
2022-11-04T05:43:09.997Z,1.30
2022-11-04T05:45:38.228Z,0.93
2022-11-04T05:48:07.109Z,1.17
2022-11-04T05:50:35.243Z,1.77
2022-11-04T05:53:03.195Z,1.10
2022-11-04T05:55:32.509Z,1.43
2022-11-04T05:58:00.520Z,2.10
2022-11-04T06:00:29.365Z,1.13
2022-11-04T06:02:58.263Z,0.93
2022-11-04T06:05:26.945Z,1.47
2022-11-04T06:07:55.034Z,1.50
2022-11-04T06:10:23.115Z,1.60
2022-11-04T06:12:52.396Z,1.17
2022-11-04T06:15:20.373Z,1.10
2022-11-04T06:17:48.300Z,0.90
2022-11-04T06:20:16.472Z,1.60
2022-11-04T06:22:44.411Z,1.40
2022-11-04T06:25:12.891Z,1.10
2022-11-04T06:27:41.278Z,1.27
2022-11-04T06:30:14.206Z,0.80
2022-11-04T06:32:42.219Z,1.43
2022-11-04T06:35:10.532Z,1.10
2022-11-04T06:37:38.923Z,1.90
2022-11-04T06:40:08.304Z,2.00
2022-11-04T06:42:36.571Z,2.67
2022-11-04T06:45:05.132Z,2.50
2022-11-04T06:47:34.414Z,2.63
2022-11-04T06:50:02.648Z,2.53
2022-11-04T06:52:30.662Z,2.93
2022-11-04T06:54:58.665Z,1.50
2022-11-04T06:57:26.628Z,1.53
2022-11-04T06:59:54.668Z,1.00
2022-11-04T07:02:25.330Z,1.70
2022-11-04T07:04:55.020Z,1.33
2022-11-04T07:07:22.998Z,1.07
2022-11-04T07:09:50.928Z,1.33
2022-11-04T07:12:18.893Z,0.90
2022-11-04T07:14:46.875Z,1.17
2022-11-04T07:17:14.827Z,3.63
2022-11-04T07:19:42.820Z,3.00
2022-11-04T07:22:12.143Z,3.30
2022-11-04T07:24:40.064Z,2.20
2022-11-04T07:27:08.345Z,1.83
2022-11-04T07:29:37.168Z,0.90
2022-11-04T07:32:05.489Z,2.73
2022-11-04T07:34:33.465Z,1.30
2022-11-04T07:37:01.412Z,1.80
2022-11-04T07:39:30.743Z,1.50
2022-11-04T07:41:59.780Z,2.53
2022-11-04T07:44:28.040Z,2.60
2022-11-04T07:46:56.400Z,1.90
2022-11-04T07:49:25.336Z,2.80
2022-11-04T07:51:53.577Z,3.00
2022-11-04T07:54:21.536Z,1.80
2022-11-04T07:56:50.866Z,2.80
2022-11-04T07:59:18.820Z,2.90
2022-11-04T08:01:46.877Z,3.80
2022-11-04T08:04:14.900Z,5.73
2022-11-04T08:06:42.860Z,4.37
2022-11-04T08:09:10.909Z,4.53
2022-11-04T08:11:38.875Z,3.73
2022-11-04T08:14:08.224Z,3.93
2022-11-04T08:16:36.154Z,4.33
2022-11-04T08:19:04.191Z,5.80
2022-11-04T08:21:33.862Z,4.17
2022-11-04T08:24:03.869Z,4.80
2022-11-04T08:26:31.821Z,4.30
2022-11-04T08:29:01.374Z,4.80
2022-11-04T08:31:32.684Z,3.37
2022-11-04T08:34:01.094Z,4.97
2022-11-04T08:36:31.640Z,5.30
2022-11-04T08:39:01.406Z,4.67
2022-11-04T08:41:32.741Z,4.40
2022-11-04T08:44:01.160Z,5.07
2022-11-04T08:46:33.302Z,3.90
2022-11-04T08:49:04.550Z,5.10
2022-11-04T08:51:38.052Z,4.23
2022-11-04T08:54:06.988Z,3.87
2022-11-04T08:56:36.793Z,3.17
2022-11-04T08:59:08.469Z,4.43
2022-11-04T09:01:41.395Z,3.20
2022-11-04T09:04:12.756Z,1.70
2022-11-04T09:06:43.882Z,2.00
2022-11-04T09:09:17.569Z,1.67
2022-11-04T09:11:49.221Z,1.10
2022-11-04T09:14:18.854Z,1.30
2022-11-04T09:16:49.683Z,1.50
2022-11-04T09:19:18.932Z,1.73
2022-11-04T09:21:48.253Z,1.23
2022-11-04T09:24:17.419Z,1.53
2022-11-04T09:26:46.097Z,1.00
2022-11-04T09:29:14.020Z,1.50
2022-11-04T09:31:43.208Z,0.80
2022-11-04T09:34:12.544Z,0.80
2022-11-04T09:36:40.570Z,2.27
2022-11-04T09:39:08.515Z,1.10
2022-11-04T09:41:58.528Z,1.20
2022-11-04T09:44:29.839Z,0.90
2022-11-04T09:47:01.890Z,0.83
2022-11-04T09:49:36.452Z,0.80
2022-11-04T09:52:08.644Z,1.20
2022-11-04T09:54:46.995Z,1.87
2022-11-04T09:57:19.033Z,0.80
2022-11-04T09:59:49.843Z,1.03
2022-11-04T10:02:43.047Z,0.73
2022-11-04T10:05:21.380Z,0.80
2022-11-04T10:07:58.749Z,0.90
2022-11-04T10:10:31.615Z,1.10
2022-11-04T10:13:09.009Z,1.00
2022-11-04T10:15:49.028Z,1.03
2022-11-04T10:18:24.920Z,1.07
2022-11-04T10:20:59.854Z,0.80
2022-11-04T10:23:34.063Z,0.80
2022-11-04T10:26:06.473Z,1.57
2022-11-04T10:28:38.928Z,1.10
2022-11-04T10:31:08.304Z,0.90
2022-11-04T10:33:40.293Z,0.90
2022-11-04T10:36:12.991Z,1.23
2022-11-04T10:38:43.841Z,1.20
2022-11-04T10:41:21.491Z,0.60
2022-11-04T10:43:50.732Z,0.70
2022-11-04T10:46:28.909Z,1.03
2022-11-04T10:49:02.192Z,1.43
2022-11-04T10:51:32.863Z,0.70
2022-11-04T10:54:03.334Z,0.80
2022-11-04T10:56:36.101Z,0.83
2022-11-04T10:59:19.902Z,0.73
2022-11-04T11:01:52.299Z,1.53
2022-11-04T11:04:29.132Z,1.30
2022-11-04T11:07:00.730Z,0.97
2022-11-04T11:09:31.258Z,1.03
2022-11-04T11:12:01.778Z,1.00
2022-11-04T11:14:35.575Z,0.63
2022-11-04T11:17:21.535Z,1.13
2022-11-04T11:19:52.122Z,0.73
2022-11-04T11:22:33.564Z,0.83
2022-11-04T11:25:15.807Z,1.17
2022-11-04T11:27:48.419Z,1.27
2022-11-04T11:30:25.443Z,0.60
2022-11-04T11:32:56.264Z,0.90
2022-11-04T11:35:28.109Z,0.70
2022-11-04T11:37:59.585Z,0.70
2022-11-04T11:40:31.639Z,0.70
2022-11-04T11:43:01.612Z,0.80
2022-11-04T11:45:31.471Z,1.83
2022-11-04T11:48:00.961Z,0.80
2022-11-04T11:50:35.595Z,0.80
2022-11-04T11:53:18.209Z,0.93
2022-11-04T11:55:51.379Z,1.17
2022-11-04T12:01:23.870Z,0.60
2022-11-04T12:09:46.662Z,0.67
2022-11-04T12:12:32.316Z,1.53
2022-11-04T12:15:08.606Z,1.20
2022-11-04T12:17:44.560Z,0.93
2022-11-04T12:20:28.057Z,1.00
2022-11-04T12:23:02.537Z,0.73
2022-11-04T12:25:36.360Z,1.90
2022-11-04T12:28:10.266Z,1.10
2022-11-04T12:30:42.950Z,0.90
2022-11-04T12:33:20.367Z,1.43
2022-11-04T12:35:56.417Z,1.30
2022-11-04T12:38:39.218Z,1.00
2022-11-04T12:41:34.636Z,2.00
2022-11-04T12:44:07.711Z,1.10
2022-11-04T12:46:40.346Z,0.90
2022-11-04T12:49:21.084Z,1.03
2022-11-04T12:51:54.583Z,1.27
2022-11-04T12:54:40.551Z,1.17
2022-11-04T12:57:15.716Z,0.70
2022-11-04T12:59:53.192Z,1.10
2022-11-04T13:02:25.029Z,1.10
2022-11-04T13:04:59.213Z,0.53
2022-11-04T13:07:32.815Z,0.70
2022-11-04T13:10:03.332Z,0.60
2022-11-04T13:12:35.047Z,0.93
2022-11-04T13:15:05.133Z,0.80
2022-11-04T13:17:36.468Z,1.03
2022-11-04T13:20:08.000Z,0.70
2022-11-04T13:22:38.933Z,1.13
2022-11-04T13:25:11.005Z,1.07
2022-11-04T13:27:44.805Z,0.57
2022-11-04T13:30:22.534Z,0.83
2022-11-04T13:32:55.780Z,1.03
2022-11-04T13:35:31.663Z,0.83
2022-11-04T13:38:02.493Z,0.87
2022-11-04T13:40:36.747Z,0.77
2022-11-04T13:43:41.813Z,1.00
2022-11-04T13:46:30.378Z,0.60
2022-11-04T13:49:05.700Z,0.60
2022-11-04T13:51:42.111Z,1.13
2022-11-04T13:54:27.018Z,1.50
2022-11-04T13:57:07.772Z,0.60
2022-11-04T13:59:36.401Z,1.33
2022-11-04T14:02:23.595Z,0.63
2022-11-04T14:04:53.240Z,1.23
2022-11-04T14:07:41.593Z,0.70
2022-11-04T14:10:30.301Z,0.80
2022-11-04T14:13:22.053Z,0.87
2022-11-04T14:16:03.075Z,0.90
2022-11-04T14:18:32.339Z,0.90
2022-11-04T14:21:06.709Z,0.60
2022-11-04T14:23:35.359Z,0.90
2022-11-04T14:26:04.781Z,2.20
2022-11-04T14:28:33.630Z,1.37
2022-11-04T14:31:02.844Z,1.27
2022-11-04T14:33:34.545Z,0.83
2022-11-04T14:36:21.279Z,0.90
2022-11-04T14:38:56.141Z,0.90
2022-11-04T14:41:31.418Z,0.70
2022-11-04T14:44:02.279Z,1.00
2022-11-04T14:46:32.675Z,1.03
2022-11-04T14:49:02.291Z,1.10
2022-11-04T14:51:31.252Z,1.07
2022-11-04T14:54:05.325Z,1.00
2022-11-04T14:56:33.954Z,1.40
2022-11-04T14:59:03.211Z,1.00
2022-11-04T15:01:35.014Z,1.10
2022-11-04T15:04:13.400Z,0.90
2022-11-04T15:06:57.684Z,1.00
2022-11-04T15:09:28.566Z,0.80
2022-11-04T15:12:19.389Z,0.80
2022-11-04T15:14:48.024Z,1.10
2022-11-04T15:17:19.552Z,1.37
2022-11-04T15:19:50.584Z,0.80
2022-11-04T15:22:19.154Z,0.80
2022-11-04T15:24:50.604Z,0.60
2022-11-04T15:27:20.432Z,0.60
2022-11-04T15:29:55.559Z,1.07
2022-11-04T15:32:24.263Z,0.90
2022-11-04T15:34:52.676Z,0.90
2022-11-04T15:37:21.945Z,0.73
2022-11-04T15:39:52.778Z,1.47
2022-11-04T15:42:42.830Z,0.63
2022-11-04T15:45:29.110Z,0.50
2022-11-04T15:48:15.915Z,0.60
2022-11-04T15:50:46.182Z,0.60
2022-11-04T15:53:17.429Z,1.00
2022-11-04T15:55:48.868Z,1.77
2022-11-04T15:58:17.605Z,1.37
2022-11-04T16:00:53.386Z,0.80
2022-11-04T16:03:24.317Z,0.60
2022-11-04T16:06:03.870Z,1.00
2022-11-04T16:08:33.756Z,0.80
2022-11-04T16:11:16.058Z,1.20
2022-11-04T16:13:44.756Z,1.73
2022-11-04T16:16:30.708Z,1.00
2022-11-04T16:18:59.756Z,1.00
2022-11-04T16:21:30.536Z,0.90
2022-11-04T16:24:01.989Z,0.70
2022-11-04T16:26:34.889Z,0.70
2022-11-04T16:29:02.922Z,0.90
2022-11-04T16:31:35.502Z,0.80
2022-11-04T16:34:04.094Z,1.10
2022-11-04T16:36:35.611Z,0.90
2022-11-04T16:39:08.472Z,1.30
2022-11-04T16:41:39.721Z,1.17
2022-11-04T16:44:18.515Z,1.17
2022-11-04T16:46:46.538Z,1.10
2022-11-04T16:49:16.472Z,1.00
2022-11-04T16:51:44.451Z,0.70
2022-11-04T16:54:12.693Z,0.90
2022-11-04T16:56:42.025Z,0.97
2022-11-04T16:59:11.784Z,0.83
2022-11-04T17:01:40.572Z,0.70
2022-11-04T17:04:08.773Z,1.37
2022-11-04T17:06:37.601Z,1.60
2022-11-04T17:09:07.844Z,2.33
2022-11-04T17:11:35.817Z,1.50
2022-11-04T17:14:05.143Z,1.23
2022-11-04T17:16:33.087Z,0.87
2022-11-04T17:19:00.997Z,1.07
2022-11-04T17:21:28.960Z,0.90
2022-11-04T17:23:57.327Z,1.00
2022-11-04T17:26:25.257Z,1.33
2022-11-04T17:28:53.149Z,0.60
2022-11-04T17:31:22.591Z,0.90
2022-11-04T17:33:50.535Z,0.70
2022-11-04T17:36:20.247Z,1.63
2022-11-04T17:38:49.258Z,0.80
2022-11-04T17:41:34.935Z,0.90
2022-11-04T17:44:02.986Z,1.00
2022-11-04T17:46:41.754Z,1.00
2022-11-04T17:49:13.972Z,1.10
2022-11-04T17:51:43.780Z,0.80
2022-11-04T17:54:12.266Z,1.10
2022-11-04T17:56:40.816Z,0.80
2022-11-04T17:59:09.740Z,1.60
2022-11-04T18:01:39.853Z,0.80
2022-11-04T18:04:08.173Z,0.80
2022-11-04T18:06:39.412Z,1.20
2022-11-04T18:09:09.718Z,1.00
2022-11-04T18:11:55.907Z,1.07
2022-11-04T18:14:24.342Z,1.13
2022-11-04T18:16:53.985Z,0.77
2022-11-04T18:19:23.947Z,1.03
2022-11-04T18:21:52.029Z,0.90
2022-11-04T18:24:20.455Z,0.83
2022-11-04T18:26:48.536Z,1.23
2022-11-04T18:29:17.324Z,1.07
2022-11-04T18:31:49.425Z,0.70
2022-11-04T18:34:19.953Z,0.60
2022-11-04T18:36:48.832Z,1.00
2022-11-04T18:39:18.647Z,0.60
2022-11-04T18:41:46.981Z,0.83
2022-11-04T18:44:17.171Z,1.00
2022-11-04T18:46:45.679Z,0.97
2022-11-04T18:49:14.604Z,1.23
2022-11-04T18:51:45.205Z,0.70
2022-11-04T18:54:14.729Z,0.90
2022-11-04T18:56:43.821Z,0.67
2022-11-04T18:59:12.850Z,0.80
2022-11-04T19:01:41.499Z,0.90
2022-11-04T19:04:09.941Z,2.80
2022-11-04T19:06:42.515Z,2.27
2022-11-04T19:09:44.728Z,3.50
2022-11-04T19:12:18.930Z,2.67
2022-11-04T19:14:46.871Z,1.50
2022-11-04T19:17:14.932Z,2.00
2022-11-04T19:19:43.527Z,1.50
2022-11-04T19:22:11.703Z,1.30
2022-11-04T19:24:41.182Z,1.10
2022-11-04T19:27:09.132Z,0.73
2022-11-04T19:29:37.086Z,1.37
2022-11-04T19:32:09.606Z,1.37
2022-11-04T19:34:41.048Z,0.63
2022-11-04T19:37:09.281Z,1.37
2022-11-04T19:39:37.559Z,0.80
2022-11-04T19:42:24.772Z,1.50
2022-11-04T19:44:52.740Z,0.87
2022-11-04T19:47:20.694Z,1.10
2022-11-04T19:49:48.741Z,1.17
2022-11-04T19:52:16.796Z,0.97
2022-11-04T19:54:44.742Z,1.10
2022-11-04T19:57:14.057Z,1.53
2022-11-04T19:59:41.995Z,1.23
2022-11-04T20:02:11.112Z,1.13
2022-11-04T20:04:39.228Z,0.80
2022-11-04T20:07:07.270Z,0.90
2022-11-04T20:09:35.227Z,0.70
2022-11-04T20:12:20.572Z,0.90
2022-11-04T20:14:49.863Z,0.80
2022-11-04T20:17:17.856Z,1.07
2022-11-04T20:19:45.795Z,0.90
2022-11-04T20:22:13.775Z,1.23
2022-11-04T20:24:41.682Z,0.70
2022-11-04T20:27:14.989Z,1.00
2022-11-04T20:29:43.172Z,1.00
2022-11-04T20:32:12.637Z,1.10
2022-11-04T20:34:40.766Z,1.10
2022-11-04T20:37:09.594Z,1.63
2022-11-04T20:39:37.611Z,1.20
2022-11-04T20:42:05.802Z,0.90
2022-11-04T20:44:34.200Z,1.00
2022-11-04T20:47:02.288Z,0.90
2022-11-04T20:49:31.719Z,0.70
2022-11-04T20:51:59.711Z,1.57
2022-11-04T20:54:27.781Z,0.73
2022-11-04T20:56:55.771Z,1.00
2022-11-04T20:59:23.734Z,0.83
2022-11-04T21:01:52.180Z,1.00
2022-11-04T21:04:21.876Z,0.77
2022-11-04T21:06:52.450Z,0.97
2022-11-04T21:09:22.549Z,0.90
2022-11-04T21:11:51.295Z,1.37
2022-11-04T21:14:20.245Z,1.33
2022-11-04T21:16:48.838Z,1.33
2022-11-04T21:19:17.130Z,1.63
2022-11-04T21:21:46.921Z,1.50
2022-11-04T21:24:17.589Z,1.77
2022-11-04T21:26:46.607Z,1.33
2022-11-04T21:29:16.887Z,1.33
2022-11-04T21:31:45.752Z,1.47
2022-11-04T21:34:13.932Z,1.50
2022-11-04T21:36:42.313Z,1.27
2022-11-04T21:39:13.889Z,0.80
2022-11-04T21:41:43.265Z,1.53
2022-11-04T21:44:14.071Z,1.40
2022-11-04T21:46:42.442Z,1.23
2022-11-04T21:49:14.825Z,1.17
2022-11-04T21:51:42.762Z,1.50
2022-11-04T21:54:12.124Z,1.33
2022-11-04T21:56:40.197Z,1.43
2022-11-04T21:59:16.936Z,1.77
2022-11-04T22:01:46.567Z,2.67
2022-11-04T22:04:14.611Z,1.27
2022-11-04T22:06:43.628Z,1.60
2022-11-04T22:09:12.679Z,1.37
2022-11-04T22:11:40.712Z,2.50
2022-11-04T22:14:12.689Z,2.00
2022-11-04T22:16:41.012Z,1.80
2022-11-04T22:19:13.460Z,2.40
2022-11-04T22:21:43.456Z,1.77
2022-11-04T22:24:12.552Z,2.53
2022-11-04T22:26:41.129Z,1.30
2022-11-04T22:29:11.438Z,2.30
2022-11-04T22:31:42.666Z,1.67
2022-11-04T22:34:10.734Z,1.60
2022-11-04T22:36:39.633Z,3.20
2022-11-04T22:39:11.885Z,1.90
2022-11-04T22:41:41.604Z,2.33
2022-11-04T22:44:10.896Z,2.23
2022-11-04T22:46:39.577Z,1.80
2022-11-04T22:49:08.443Z,3.47
2022-11-04T22:51:36.447Z,2.33
2022-11-04T22:54:08.315Z,3.37
2022-11-04T22:56:37.144Z,2.50
2022-11-04T22:59:05.251Z,2.27
2022-11-04T23:01:34.769Z,2.60
2022-11-04T23:04:02.984Z,1.90
2022-11-04T23:06:31.124Z,2.13
2022-11-04T23:09:00.656Z,3.03
2022-11-04T23:11:48.099Z,2.30
2022-11-04T23:14:36.228Z,2.20
2022-11-04T23:17:32.403Z,2.80
2022-11-04T23:20:00.610Z,2.83
2022-11-04T23:22:46.200Z,3.33
2022-11-04T23:25:14.296Z,3.77
2022-11-04T23:28:02.653Z,3.13
2022-11-04T23:30:33.446Z,2.73
2022-11-04T23:33:04.427Z,2.20
2022-11-04T23:35:51.335Z,2.77
2022-11-04T23:38:20.092Z,1.97
2022-11-04T23:41:03.094Z,1.87
2022-11-04T23:43:31.105Z,2.20
2022-11-04T23:46:16.468Z,2.27
2022-11-04T23:49:03.049Z,2.00
2022-11-04T23:51:49.331Z,1.20
2022-11-04T23:54:34.843Z,1.00
2022-11-04T23:57:20.326Z,1.30
